Time;durP1;ratioP1;P1;durP2;ratioP2;P2;SDS_P1;SDS_P2;PMS_P1;PMS_P2;Temp;Humidity;BMP_temperature;BMP_pressure;BME280_temperature;BME280_humidity;BME280_pressure;Samples;Min_cycle;Max_cycle;Signal;HPM_P1;HPM_P2
2023/03/03 00:02:12;;;;;;;39.07;10.67;;;;;;;;;;10432926;28;20410;-79
2023/03/03 00:07:21;;;;;;;48.33;12.90;;;;;;;;;;10455759;28;20048;-77
2023/03/03 00:12:26;;;;;;;42.90;13.50;;;;;;;;;;10424986;28;20165;-78
2023/03/03 00:17:30;;;;;;;49.08;13.57;;;;;;;;;;10432390;28;20056;-78
2023/03/03 00:22:33;;;;;;;;;;;;;;;;;;10435693;28;20566;-77
2023/03/03 00:27:37;;;;;;;43.00;13.90;;;;;;;;;;10428081;28;19975;-79
2023/03/03 00:32:45;;;;;;;45.60;13.40;;;;;;;;;;10433236;28;20029;-77
2023/03/03 00:37:50;;;;;;;39.00;11.10;;;;;;;;;;10438815;28;20528;-76
2023/03/03 00:42:55;;;;;;;37.10;11.80;;;;;;;;;;10437894;28;20203;-76
2023/03/03 00:47:58;;;;;;;29.33;8.37;;;;;;;;;;10437694;28;20056;-76
2023/03/03 00:53:05;;;;;;;39.60;12.17;;;;;;;;;;10445156;28;20044;-79
2023/03/03 00:58:09;;;;;;;37.50;11.53;;;;;;;;;;10436709;28;20164;-78
2023/03/03 01:03:13;;;;;;;39.00;10.00;;;;;;;;;;10445380;28;20398;-76
2023/03/03 01:08:16;;;;;;;37.30;10.83;;;;;;;;;;10430361;28;20041;-76
2023/03/03 01:13:22;;;;;;;15.60;5.67;;;;;;;;;;10442175;28;20041;-77
2023/03/03 01:18:25;;;;;;;47.50;15.23;;;;;;;;;;10433708;28;20131;-77
2023/03/03 01:23:37;;;;;;;42.07;12.87;;;;;;;;;;10446300;28;20048;-77
2023/03/03 01:28:42;;;;;;;30.55;9.10;;;;;;;;;;10433773;28;20051;-76
2023/03/03 01:33:45;;;;;;;44.40;12.93;;;;;;;;;;10434563;28;20051;-76
2023/03/03 01:38:47;;;;;;;45.27;12.63;;;;;;;;;;10436123;28;20045;-77
2023/03/03 01:43:52;;;;;;;18.30;6.37;;;;;;;;;;10437399;28;20028;-77
2023/03/03 01:49:01;;;;;;;41.53;10.55;;;;;;;;;;10444485;28;20057;-77
2023/03/03 01:54:06;;;;;;;51.27;15.47;;;;;;;;;;10440405;28;20462;-80
2023/03/03 01:59:13;;;;;;;46.33;12.82;;;;;;;;;;10442021;28;20041;-78
2023/03/03 02:04:17;;;;;;;21.63;7.17;;;;;;;;;;10448228;28;20580;-78
2023/03/03 02:09:24;;;;;;;14.97;5.63;;;;;;;;;;10446453;28;20083;-76
2023/03/03 02:14:29;;;;;;;30.67;7.97;;;;;;;;;;10447763;28;20311;-78
2023/03/03 02:19:36;;;;;;;30.27;9.37;;;;;;;;;;10447871;28;20352;-79
2023/03/03 02:24:41;;;;;;;51.47;14.67;;;;;;;;;;10452516;28;20048;-77
2023/03/03 02:29:45;;;;;;;23.87;6.37;;;;;;;;;;10434638;28;20048;-76
2023/03/03 02:34:55;;;;;;;43.90;14.20;;;;;;;;;;10445502;28;20091;-77
2023/03/03 02:39:58;;;;;;;40.67;10.70;;;;;;;;;;10443076;28;20036;-78
2023/03/03 02:45:02;;;;;;;33.47;10.50;;;;;;;;;;10439691;28;20415;-77
2023/03/03 02:50:05;;;;;;;23.63;8.43;;;;;;;;;;10435806;28;20521;-78
2023/03/03 02:55:09;;;;;;;48.70;13.77;;;;;;;;;;10438947;28;20422;-78
2023/03/03 03:00:13;;;;;;;10.17;3.80;;;;;;;;;;10443765;28;20100;-76
2023/03/03 03:05:16;;;;;;;20.47;7.33;;;;;;;;;;10436106;28;20091;-76
2023/03/03 03:10:29;;;;;;;35.77;11.27;;;;;;;;;;10437876;28;20053;-78
2023/03/03 03:15:45;;;;;;;39.17;11.53;;;;;;;;;;10436355;28;20037;-76
2023/03/03 03:20:48;;;;;;;39.77;12.30;;;;;;;;;;10438932;28;20040;-76
2023/03/03 03:25:59;;;;;;;44.87;13.40;;;;;;;;;;10438579;28;20040;-77
2023/03/03 03:31:04;;;;;;;47.43;13.50;;;;;;;;;;10437321;28;20041;-77
2023/03/03 03:36:07;;;;;;;51.17;15.13;;;;;;;;;;10435765;28;20083;-77
2023/03/03 03:41:11;;;;;;;42.80;11.63;;;;;;;;;;10435904;28;20052;-78
2023/03/03 03:46:15;;;;;;;26.60;9.20;;;;;;;;;;10442588;28;20037;-78
2023/03/03 03:51:18;;;;;;;26.00;8.90;;;;;;;;;;10428636;28;20098;-77
2023/03/03 03:56:21;;;;;;;35.77;12.23;;;;;;;;;;10437371;28;20045;-77
2023/03/03 04:01:26;;;;;;;29.47;7.90;;;;;;;;;;10445251;28;20063;-78
2023/03/03 04:06:29;;;;;;;52.23;15.30;;;;;;;;;;10429018;28;20064;-79
2023/03/03 04:11:32;;;;;;;50.37;14.73;;;;;;;;;;10434542;28;20041;-76
2023/03/03 04:16:36;;;;;;;46.80;14.67;;;;;;;;;;10429277;28;20033;-77
2023/03/03 04:21:39;;;;;;;46.87;16.47;;;;;;;;;;10450137;28;20302;-76
2023/03/03 04:26:42;;;;;;;40.93;14.47;;;;;;;;;;10436045;28;20037;-77
2023/03/03 04:31:47;;;;;;;46.60;14.73;;;;;;;;;;10437252;28;20052;-77
2023/03/03 04:36:50;;;;;;;52.28;15.75;;;;;;;;;;10441606;28;20770;-77
2023/03/03 04:41:53;;;;;;;44.65;13.82;;;;;;;;;;10435803;28;20562;-77
2023/03/03 04:46:58;;;;;;;49.13;15.27;;;;;;;;;;10445368;28;20033;-77
2023/03/03 04:52:01;;;;;;;24.60;7.47;;;;;;;;;;10435301;28;20105;-77
2023/03/03 04:57:06;;;;;;;41.77;13.67;;;;;;;;;;10431318;28;20057;-77
2023/03/03 05:02:11;;;;;;;47.50;13.97;;;;;;;;;;10432494;28;20048;-77
2023/03/03 05:07:14;;;;;;;23.40;7.77;;;;;;;;;;10434064;28;20046;-76
2023/03/03 05:12:16;;;;;;;32.77;10.90;;;;;;;;;;10436109;28;20489;-76
2023/03/03 05:17:20;;;;;;;53.43;16.03;;;;;;;;;;10440195;28;20407;-77
2023/03/03 05:22:24;;;;;;;56.77;14.80;;;;;;;;;;10436560;28;20182;-76
2023/03/03 05:27:26;;;;;;;55.63;15.40;;;;;;;;;;10438148;28;20044;-76
2023/03/03 05:32:31;;;;;;;42.23;13.27;;;;;;;;;;10452254;28;20068;-77
2023/03/03 05:37:35;;;;;;;55.07;14.70;;;;;;;;;;10441035;28;20037;-78
2023/03/03 05:42:38;;;;;;;57.13;19.08;;;;;;;;;;10446540;28;20064;-76
2023/03/03 05:47:42;;;;;;;59.23;17.97;;;;;;;;;;10444774;28;20052;-77
2023/03/03 05:52:47;;;;;;;56.05;16.95;;;;;;;;;;10447345;28;20068;-76
2023/03/03 05:57:50;;;;;;;38.23;11.67;;;;;;;;;;10430610;28;20060;-75
2023/03/03 06:02:54;;;;;;;55.27;15.60;;;;;;;;;;10432375;28;20041;-76
2023/03/03 06:07:58;;;;;;;50.53;17.43;;;;;;;;;;10431438;28;20509;-76
2023/03/03 06:13:01;;;;;;;59.90;17.48;;;;;;;;;;10439552;28;20048;-77
2023/03/03 06:18:05;;;;;;;48.43;14.50;;;;;;;;;;10451392;28;20132;-76
2023/03/03 06:23:08;;;;;;;57.97;16.23;;;;;;;;;;10445626;28;20049;-76
2023/03/03 06:28:12;;;;;;;58.27;17.60;;;;;;;;;;10444587;28;20033;-76
2023/03/03 06:33:16;;;;;;;60.33;17.80;;;;;;;;;;10440857;28;20511;-78
2023/03/03 06:38:19;;;;;;;22.02;7.28;;;;;;;;;;10440166;28;20029;-78
2023/03/03 06:43:22;;;;;;;50.67;15.43;;;;;;;;;;10444683;28;20063;-76
2023/03/03 06:48:26;;;;;;;60.63;17.40;;;;;;;;;;10436271;28;20037;-76
2023/03/03 06:53:31;;;;;;;48.80;16.38;;;;;;;;;;10437917;28;20679;-77
2023/03/03 06:58:34;;;;;;;61.80;17.23;;;;;;;;;;10440582;28;20053;-77
2023/03/03 07:03:38;;;;;;;55.23;16.93;;;;;;;;;;10434795;28;20049;-78
2023/03/03 07:08:41;;;;;;;59.17;17.58;;;;;;;;;;10435916;28;20051;-78
2023/03/03 07:13:46;;;;;;;55.50;16.80;;;;;;;;;;10451624;28;20449;-77
2023/03/03 07:18:52;;;;;;;51.13;15.40;;;;;;;;;;10448350;28;20072;-77
2023/03/03 07:23:54;;;;;;;60.40;17.05;;;;;;;;;;10453345;28;20059;-76
2023/03/03 07:28:58;;;;;;;49.65;16.83;;;;;;;;;;10441789;28;20075;-76
2023/03/03 07:34:04;;;;;;;57.53;18.83;;;;;;;;;;10433904;28;20044;-78
2023/03/03 07:39:18;;;;;;;52.13;18.67;;;;;;;;;;10435580;28;20072;-77
2023/03/03 07:44:22;;;;;;;55.10;18.33;;;;;;;;;;10430934;28;20043;-78
2023/03/03 07:49:31;;;;;;;54.00;18.23;;;;;;;;;;10429119;28;20072;-76
2023/03/03 07:54:36;;;;;;;58.83;19.50;;;;;;;;;;10431928;28;20487;-76
2023/03/03 07:59:41;;;;;;;55.25;17.65;;;;;;;;;;10430921;28;20168;-76
2023/03/03 08:04:49;;;;;;;65.13;17.92;;;;;;;;;;10433483;28;20033;-78
2023/03/03 08:09:57;;;;;;;24.67;10.40;;;;;;;;;;10438215;28;20045;-77
2023/03/03 08:15:10;;;;;;;56.75;17.75;;;;;;;;;;10425685;28;20056;-77
2023/03/03 08:20:40;;;;;;;42.60;13.77;;;;;;;;;;10440772;28;20569;-77
2023/03/03 08:25:45;;;;;;;57.35;18.40;;;;;;;;;;10390510;28;20461;-77
2023/03/03 08:30:48;;;;;;;57.35;18.85;;;;;;;;;;10442457;28;20426;-78
2023/03/03 08:35:51;;;;;;;53.15;16.85;;;;;;;;;;10431255;28;20037;-77
2023/03/03 08:40:55;;;;;;;55.80;19.33;;;;;;;;;;10433563;28;20139;-78
2023/03/03 08:45:59;;;;;;;59.60;19.75;;;;;;;;;;10437894;28;20030;-77
2023/03/03 08:51:02;;;;;;;52.63;19.48;;;;;;;;;;10454740;28;20046;-77
2023/03/03 08:56:06;;;;;;;50.85;17.02;;;;;;;;;;10433740;28;20098;-78
2023/03/03 09:01:10;;;;;;;38.75;13.93;;;;;;;;;;10431324;28;20051;-79
2023/03/03 09:06:12;;;;;;;57.30;18.73;;;;;;;;;;10436062;28;20151;-77
2023/03/03 09:11:21;;;;;;;55.90;19.00;;;;;;;;;;10439482;28;20106;-80
2023/03/03 09:16:24;;;;;;;57.88;20.25;;;;;;;;;;10445708;28;20052;-80
2023/03/03 09:21:31;;;;;;;57.65;19.00;;;;;;;;;;10439678;28;20124;-77
2023/03/03 09:26:45;;;;;;;54.55;19.60;;;;;;;;;;10432652;28;20045;-77
2023/03/03 09:31:50;;;;;;;52.70;18.07;;;;;;;;;;10447862;28;20052;-78
2023/03/03 09:36:54;;;;;;;58.30;21.15;;;;;;;;;;10443234;28;20102;-79
2023/03/03 09:42:15;;;;;;;53.72;19.20;;;;;;;;;;10441486;28;20052;-78
2023/03/03 09:47:26;;;;;;;53.83;20.17;;;;;;;;;;10433677;28;20114;-78
2023/03/03 09:52:33;;;;;;;53.70;18.30;;;;;;;;;;10444485;28;20064;-78
2023/03/03 09:57:47;;;;;;;48.53;18.48;;;;;;;;;;10449795;28;20037;-78
2023/03/03 10:03:13;;;;;;;54.45;19.52;;;;;;;;;;10440125;28;20048;-77
2023/03/03 10:08:28;;;;;;;52.28;17.63;;;;;;;;;;10450128;28;20379;-78
2023/03/03 10:13:48;;;;;;;57.30;19.30;;;;;;;;;;10449260;28;20049;-77
2023/03/03 10:18:58;;;;;;;52.03;20.58;;;;;;;;;;10431286;28;20507;-78
2023/03/03 10:24:04;;;;;;;52.97;19.52;;;;;;;;;;10441649;28;20044;-78
2023/03/03 10:29:10;;;;;;;55.72;19.00;;;;;;;;;;10438927;28;20106;-78
2023/03/03 10:34:22;;;;;;;64.07;19.48;;;;;;;;;;10445768;28;20044;-77
2023/03/03 10:39:38;;;;;;;53.13;20.08;;;;;;;;;;10452117;28;20071;-79
2023/03/03 10:44:55;;;;;;;53.65;19.88;;;;;;;;;;10441079;28;20071;-79
2023/03/03 10:50:07;;;;;;;56.95;18.50;;;;;;;;;;10441644;28;20075;-79
2023/03/03 10:55:20;;;;;;;45.25;16.27;;;;;;;;;;10438285;28;20131;-76
2023/03/03 11:00:32;;;;;;;63.78;20.48;;;;;;;;;;10433889;28;20037;-77
2023/03/03 11:05:40;;;;;;;61.05;21.40;;;;;;;;;;10436739;28;20037;-78
2023/03/03 11:10:49;;;;;;;51.88;19.83;;;;;;;;;;10437838;28;20041;-77
2023/03/03 11:16:09;;;;;;;55.13;19.73;;;;;;;;;;10439296;28;20205;-77
2023/03/03 11:21:19;;;;;;;55.55;20.15;;;;;;;;;;10431196;28;20056;-77
2023/03/03 11:26:29;;;;;;;53.25;19.80;;;;;;;;;;10447125;28;20049;-78
2023/03/03 11:31:36;;;;;;;51.88;20.42;;;;;;;;;;10433511;28;20057;-79
2023/03/03 11:36:43;;;;;;;57.50;20.75;;;;;;;;;;10441848;28;20370;-79
2023/03/03 11:41:52;;;;;;;49.28;19.38;;;;;;;;;;10437506;28;20052;-79
2023/03/03 11:46:58;;;;;;;46.13;17.08;;;;;;;;;;10434603;28;20501;-80
2023/03/03 11:52:11;;;;;;;50.35;20.30;;;;;;;;;;10435597;28;20041;-78
2023/03/03 11:57:19;;;;;;;55.95;19.92;;;;;;;;;;10433291;28;20529;-78
2023/03/03 12:02:31;;;;;;;33.55;13.13;;;;;;;;;;10423785;28;20153;-77
2023/03/03 12:07:41;;;;;;;50.10;20.55;;;;;;;;;;10432176;28;20041;-80
2023/03/03 12:12:45;;;;;;;54.38;21.05;;;;;;;;;;10438748;28;20056;-78
2023/03/03 12:17:58;;;;;;;55.13;20.75;;;;;;;;;;10427677;28;20061;-79
2023/03/03 12:23:06;;;;;;;53.97;19.80;;;;;;;;;;10427201;28;20049;-78
2023/03/03 12:28:11;;;;;;;51.63;20.23;;;;;;;;;;10428552;28;20041;-78
2023/03/03 12:33:21;;;;;;;55.95;20.73;;;;;;;;;;10428856;28;20114;-78
2023/03/03 12:38:30;;;;;;;55.55;21.42;;;;;;;;;;10437115;28;20128;-77
2023/03/03 12:43:40;;;;;;;53.40;20.38;;;;;;;;;;10448000;28;20037;-79
2023/03/03 12:48:44;;;;;;;46.60;19.88;;;;;;;;;;10453097;28;20132;-77
2023/03/03 12:53:54;;;;;;;51.42;21.27;;;;;;;;;;10447753;28;20049;-79
2023/03/03 12:59:00;;;;;;;51.85;19.75;;;;;;;;;;10440161;28;20053;-77
2023/03/03 13:04:05;;;;;;;52.83;20.98;;;;;;;;;;10452074;28;20041;-77
2023/03/03 13:09:15;;;;;;;49.92;20.48;;;;;;;;;;10449622;28;20092;-78
2023/03/03 13:14:22;;;;;;;53.38;19.58;;;;;;;;;;10450331;28;20328;-78
2023/03/03 13:19:27;;;;;;;52.60;20.33;;;;;;;;;;10447436;28;20047;-78
2023/03/03 13:24:33;;;;;;;52.42;21.13;;;;;;;;;;10445646;28;20037;-79
2023/03/03 13:29:37;;;;;;;49.30;18.02;;;;;;;;;;10438636;28;20072;-79
2023/03/03 13:34:39;;;;;;;;;;;;;;;;;;10440779;28;20132;-78
2023/03/03 13:39:49;;;;;;;49.15;18.77;;;;;;;;;;10438607;28;19920;-79
2023/03/03 13:44:52;;;;;;;48.15;17.98;;;;;;;;;;10438262;28;20048;-80
2023/03/03 13:50:00;;;;;;;47.22;20.35;;;;;;;;;;10435556;28;20041;-77
2023/03/03 13:55:09;;;;;;;49.65;17.77;;;;;;;;;;10435636;28;20044;-80
2023/03/03 14:00:19;;;;;;;45.60;16.63;;;;;;;;;;10429397;28;20033;-79
2023/03/03 14:05:25;;;;;;;48.58;18.10;;;;;;;;;;10442061;28;20120;-79
2023/03/03 14:10:32;;;;;;;44.90;16.25;;;;;;;;;;10440283;28;20418;-79
2023/03/03 14:15:45;;;;;;;30.55;10.40;;;;;;;;;;10433603;28;20072;-79
2023/03/03 14:20:50;;;;;;;43.97;19.65;;;;;;;;;;10440614;28;20171;-78
2023/03/03 14:25:58;;;;;;;49.65;19.50;;;;;;;;;;10438781;28;20491;-79
2023/03/03 14:31:09;;;;;;;47.35;19.90;;;;;;;;;;10440176;28;20049;-79
2023/03/03 14:36:15;;;;;;;48.33;19.95;;;;;;;;;;10451170;28;20140;-79
2023/03/03 14:41:34;;;;;;;43.10;17.75;;;;;;;;;;10434269;28;20135;-80
2023/03/03 14:46:39;;;;;;;44.58;17.17;;;;;;;;;;10437883;28;20587;-78
2023/03/03 14:51:43;;;;;;;44.80;18.42;;;;;;;;;;10441221;28;20049;-78
2023/03/03 14:57:11;;;;;;;41.47;16.92;;;;;;;;;;10434732;28;20041;-79
2023/03/03 15:02:35;;;;;;;38.67;15.52;;;;;;;;;;10434960;28;20053;-79
2023/03/03 15:07:39;;;;;;;50.72;18.70;;;;;;;;;;10430441;28;20496;-79
2023/03/03 15:12:42;;;;;;;51.05;19.98;;;;;;;;;;10434396;28;20506;-79
2023/03/03 15:17:55;;;;;;;57.05;20.05;;;;;;;;;;10435512;28;20053;-77
2023/03/03 15:23:05;;;;;;;51.40;19.43;;;;;;;;;;10434484;28;20044;-78
2023/03/03 15:28:14;;;;;;;46.22;18.27;;;;;;;;;;10436173;28;20369;-77
2023/03/03 15:33:28;;;;;;;50.70;19.60;;;;;;;;;;10438526;28;20545;-79
2023/03/03 15:38:37;;;;;;;45.88;17.15;;;;;;;;;;10436999;28;20078;-80
2023/03/03 15:43:43;;;;;;;42.15;17.23;;;;;;;;;;10437186;28;20064;-78
2023/03/03 15:48:53;;;;;;;47.38;19.10;;;;;;;;;;10432516;28;20045;-79
2023/03/03 15:54:13;;;;;;;41.95;16.80;;;;;;;;;;10434372;28;20057;-78
2023/03/03 15:59:31;;;;;;;48.03;18.67;;;;;;;;;;10439836;28;20037;-79
2023/03/03 16:04:35;;;;;;;39.28;16.30;;;;;;;;;;10433341;28;20386;-78
2023/03/03 16:09:46;;;;;;;47.63;19.05;;;;;;;;;;10435554;28;20036;-78
2023/03/03 16:15:05;;;;;;;45.28;18.48;;;;;;;;;;10429791;28;20045;-77
2023/03/03 16:20:13;;;;;;;52.33;19.10;;;;;;;;;;10425162;28;20376;-76
2023/03/03 16:25:26;;;;;;;54.63;19.40;;;;;;;;;;10433448;28;20391;-76
2023/03/03 16:30:32;;;;;;;48.22;18.88;;;;;;;;;;10430511;28;20459;-76
2023/03/03 16:35:38;;;;;;;49.70;18.48;;;;;;;;;;10433540;28;20525;-77
2023/03/03 16:40:45;;;;;;;48.45;18.02;;;;;;;;;;10434507;28;20494;-77
2023/03/03 16:45:49;;;;;;;51.67;18.50;;;;;;;;;;10424799;28;20426;-77
2023/03/03 16:51:04;;;;;;;48.85;18.33;;;;;;;;;;10429837;28;20151;-77
2023/03/03 16:56:10;;;;;;;50.50;18.95;;;;;;;;;;10430279;28;20695;-76
2023/03/03 17:01:21;;;;;;;57.22;19.42;;;;;;;;;;10434721;28;20495;-76
2023/03/03 17:06:28;;;;;;;54.53;18.17;;;;;;;;;;10434011;28;20053;-76
2023/03/03 17:11:45;;;;;;;24.08;8.55;;;;;;;;;;10429296;28;20041;-76
2023/03/03 17:16:54;;;;;;;52.30;20.48;;;;;;;;;;10433559;28;20041;-76
2023/03/03 17:22:04;;;;;;;50.20;18.35;;;;;;;;;;10425676;28;20140;-76
2023/03/03 17:27:12;;;;;;;54.00;19.98;;;;;;;;;;10440612;28;20044;-76
2023/03/03 17:32:21;;;;;;;57.28;18.85;;;;;;;;;;10437983;28;20495;-75
2023/03/03 17:37:31;;;;;;;54.00;17.88;;;;;;;;;;10436755;28;20471;-76
2023/03/03 17:42:38;;;;;;;53.80;19.65;;;;;;;;;;10439380;28;20106;-77
2023/03/03 17:47:46;;;;;;;55.17;18.75;;;;;;;;;;10439434;28;20041;-75
2023/03/03 17:53:13;;;;;;;59.95;19.20;;;;;;;;;;10438396;28;20048;-76
2023/03/03 17:58:27;;;;;;;18.92;6.93;;;;;;;;;;10431642;28;20042;-76
2023/03/03 18:03:47;;;;;;;44.50;15.25;;;;;;;;;;10436717;28;20052;-77
2023/03/03 18:09:00;;;;;;;59.45;18.20;;;;;;;;;;10446717;28;20631;-76
2023/03/03 18:14:30;;;;;;;42.53;13.63;;;;;;;;;;10442732;28;20091;-76
2023/03/03 18:19:49;;;;;;;60.80;20.67;;;;;;;;;;10448100;28;20033;-77
2023/03/03 18:24:58;;;;;;;56.95;18.90;;;;;;;;;;10444016;28;20473;-76
2023/03/03 18:30:19;;;;;;;60.13;19.45;;;;;;;;;;10455630;28;20045;-77
2023/03/03 18:35:30;;;;;;;61.72;20.50;;;;;;;;;;10439711;28;20036;-77
2023/03/03 18:40:34;;;;;;;58.70;18.70;;;;;;;;;;10441003;28;20468;-78
2023/03/03 18:45:47;;;;;;;61.00;19.90;;;;;;;;;;10441153;28;20053;-77
2023/03/03 18:50:52;;;;;;;48.45;16.80;;;;;;;;;;10442679;28;20119;-77
2023/03/03 18:55:55;;;;;;;37.97;11.60;;;;;;;;;;10436999;28;20402;-77
2023/03/03 19:01:29;;;;;;;36.25;12.25;;;;;;;;;;10437792;28;20036;-76
2023/03/03 19:06:53;;;;;;;52.03;17.40;;;;;;;;;;10436672;28;20166;-77
2023/03/03 19:11:58;;;;;;;63.03;18.67;;;;;;;;;;10434716;28;20638;-77
2023/03/03 19:17:16;;;;;;;72.25;23.42;;;;;;;;;;10442711;28;20052;-76
2023/03/03 19:22:25;;;;;;;60.03;19.58;;;;;;;;;;10436021;28;20049;-76
2023/03/03 19:27:30;;;;;;;54.88;18.10;;;;;;;;;;10435469;28;20373;-74
2023/03/03 19:32:40;;;;;;;53.42;19.40;;;;;;;;;;10432736;28;20048;-77
2023/03/03 19:37:48;;;;;;;47.65;15.38;;;;;;;;;;10433686;28;20391;-76
2023/03/03 19:42:57;;;;;;;46.50;14.82;;;;;;;;;;10434143;28;20049;-76
2023/03/03 19:48:03;;;;;;;13.60;5.85;;;;;;;;;;10430450;28;20073;-76
2023/03/03 19:53:15;;;;;;;61.30;19.65;;;;;;;;;;10434320;28;20040;-76
2023/03/03 19:58:22;;;;;;;18.25;7.25;;;;;;;;;;10429905;28;20128;-76
2023/03/03 20:03:48;;;;;;;25.13;9.57;;;;;;;;;;10431345;28;20114;-76
2023/03/03 20:09:00;;;;;;;61.60;18.25;;;;;;;;;;10443735;28;20091;-77
2023/03/03 20:14:06;;;;;;;55.25;17.67;;;;;;;;;;10435915;28;20040;-75
2023/03/03 20:19:18;;;;;;;55.95;17.50;;;;;;;;;;10429675;28;20433;-75
2023/03/03 20:24:31;;;;;;;54.00;16.55;;;;;;;;;;10435330;28;20517;-77
2023/03/03 20:29:45;;;;;;;7.05;3.83;;;;;;;;;;10430573;28;20116;-76
2023/03/03 20:34:53;;;;;;;38.67;11.37;;;;;;;;;;10432958;28;20486;-77
2023/03/03 20:40:02;;;;;;;35.00;12.53;;;;;;;;;;10446892;28;20498;-77
2023/03/03 20:45:13;;;;;;;36.88;12.02;;;;;;;;;;10438814;28;20041;-75
2023/03/03 20:50:23;;;;;;;38.50;12.63;;;;;;;;;;10426547;28;20398;-76
2023/03/03 20:55:31;;;;;;;36.45;12.57;;;;;;;;;;10439026;28;20044;-76
2023/03/03 21:00:37;;;;;;;27.85;9.25;;;;;;;;;;10438940;28;20059;-76
2023/03/03 21:05:54;;;;;;;59.90;18.15;;;;;;;;;;10448021;28;20037;-76
2023/03/03 21:11:00;;;;;;;57.57;19.00;;;;;;;;;;10437997;28;20045;-76
2023/03/03 21:16:16;;;;;;;39.42;10.23;;;;;;;;;;10443098;28;20044;-77
2023/03/03 21:21:19;;;;;;;43.70;14.23;;;;;;;;;;10437308;28;20124;-76
2023/03/03 21:26:41;;;;;;;56.63;17.03;;;;;;;;;;10446337;28;20068;-77
2023/03/03 21:31:46;;;;;;;25.88;9.50;;;;;;;;;;10438799;28;20083;-76
2023/03/03 21:36:50;;;;;;;46.97;17.70;;;;;;;;;;10436600;28;20151;-76
2023/03/03 21:42:00;;;;;;;37.03;10.23;;;;;;;;;;10438243;28;20052;-76
2023/03/03 21:47:02;;;;;;;;;;;;;;;;;;10457642;28;20128;-76
2023/03/03 21:52:06;;;;;;;39.03;12.40;;;;;;;;;;10453325;28;19925;-76
2023/03/03 21:57:09;;;;;;;21.02;8.68;;;;;;;;;;10444319;28;20069;-77
2023/03/03 22:02:15;;;;;;;50.73;15.83;;;;;;;;;;10441960;28;20490;-76
2023/03/03 22:07:19;;;;;;;53.42;16.85;;;;;;;;;;10434266;28;20724;-76
2023/03/03 22:12:22;;;;;;;62.08;17.48;;;;;;;;;;10435703;28;20037;-76
2023/03/03 22:17:25;;;;;;;61.83;19.80;;;;;;;;;;10395550;28;20042;-76
2023/03/03 22:22:31;;;;;;;38.43;12.13;;;;;;;;;;10400811;28;20373;-77
2023/03/03 22:27:33;;;;;;;24.05;7.15;;;;;;;;;;10401504;28;20041;-76
2023/03/03 22:32:36;;;;;;;52.13;15.47;;;;;;;;;;10409619;28;20187;-76
2023/03/03 22:37:40;;;;;;;67.97;19.63;;;;;;;;;;10407455;28;20045;-76
2023/03/03 22:42:43;;;;;;;69.20;20.80;;;;;;;;;;10397268;28;20076;-77
2023/03/03 22:47:46;;;;;;;9.90;4.93;;;;;;;;;;10393447;28;20874;-77
2023/03/03 22:52:51;;;;;;;66.53;18.37;;;;;;;;;;10397180;28;20048;-77
2023/03/03 22:57:54;;;;;;;31.33;9.83;;;;;;;;;;10396916;28;20045;-77
2023/03/03 23:02:57;;;;;;;35.43;11.90;;;;;;;;;;10393717;28;20120;-78
2023/03/03 23:08:13;;;;;;;36.53;13.53;;;;;;;;;;10390356;28;20048;-78
2023/03/03 23:13:16;;;;;;;56.90;17.60;;;;;;;;;;10398163;28;20495;-76
2023/03/03 23:18:20;;;;;;;68.73;21.10;;;;;;;;;;10402828;28;20057;-77
2023/03/03 23:23:24;;;;;;;20.83;7.83;;;;;;;;;;10395392;28;20308;-77
2023/03/03 23:28:27;;;;;;;48.43;15.70;;;;;;;;;;10392734;28;20040;-76
2023/03/03 23:33:30;;;;;;;54.63;17.47;;;;;;;;;;10398262;28;20033;-76
2023/03/03 23:38:36;;;;;;;62.33;18.23;;;;;;;;;;10402672;28;20120;-76
2023/03/03 23:43:38;;;;;;;39.58;11.63;;;;;;;;;;10400909;28;20478;-76
2023/03/03 23:48:41;;;;;;;58.90;17.67;;;;;;;;;;10410380;28;20041;-75
2023/03/03 23:53:45;;;;;;;62.40;19.17;;;;;;;;;;10404111;28;20515;-76
2023/03/03 23:58:48;;;;;;;20.10;9.07;;;;;;;;;;10396049;28;20107;-78
